Flight Track Log - Related Links

Times and Time Zones

All times are in EDT time to prevent confusion due to time zone crossing. See the N465TP flight status page for this flight to view local times or setup timezone preferences in your user account.

Time Position Orientation Groundspeed Altitude Reporting Facility
EDT Latitude Longitude Course Direction KTS MPH feet Rate Location/Type
Sun 03:32:05 PM 33.7500 -116.2500 40° Northeast 143 165 2,800  Level Southern California TRACON
Sun 03:33:05 PM 33.7833 -116.2167 40° Northeast 134 154 4,500 1,600 Climbing Southern California TRACON
Sun 03:34:05 PM 33.8000 -116.1833 59° Northeast 147 169 6,000 1,297 Climbing Southern California TRACON
Sun 03:34:56 PM 33.8258 -116.1581 39° Northeast 153 176 6,900 1,421 Climbing Los Angeles Center
Sun 03:35:59 PM 33.8597 -116.1108 49° Northeast 154 177 8,700 1,488 Climbing Los Angeles Center
Sun 03:37:01 PM 33.8906 -116.0700 48° Northeast 159 183 10,000 1,258 Climbing Los Angeles Center
Sun 03:38:03 PM 33.9236 -116.0261 48° Northeast 167 192 11,300 1,306 Climbing Los Angeles Center
Sun 03:39:05 PM 33.9583 -115.9767 50° Northeast 182 209 12,700 1,258 Climbing Los Angeles Center
Sun 03:40:07 PM 33.9947 -115.9292 47° Northeast 190 219 13,900 1,103 Climbing Los Angeles Center
Sun 03:41:21 PM 34.0325 -115.8794 47° Northeast 194 223 15,200 1,401 Climbing Los Angeles Center
Sun 03:42:24 PM 34.0878 -115.8028 49° Northeast 213 245 17,100 1,488 Climbing Los Angeles Center
Sun 03:43:26 PM 34.1281 -115.7481 48° Northeast 216 249 18,300 1,210 Climbing Los Angeles Center
Sun 03:44:28 PM 34.1742 -115.6972 42° Northeast 223 257 19,600 1,161 Climbing Los Angeles Center
Sun 03:45:30 PM 34.2225 -115.6450 42° Northeast 230 265 20,700 1,113 Climbing Los Angeles Center
Sun 03:46:32 PM 34.2711 -115.5872 44° Northeast 240 276 21,900 1,210 Climbing Los Angeles Center
Sun 03:47:34 PM 34.3333 -115.5206 41° Northeast 247 284 23,200 1,210 Climbing Los Angeles Center
Sun 03:48:36 PM 34.3969 -115.4942 19° North 242 278 24,400 1,104 Climbing Los Angeles Center
Sun 03:49:39 PM 34.4603 -115.4675 19° North 242 278 25,500 1,008 Climbing Los Angeles Center
Sun 03:50:41 PM 34.5269 -115.4394 19° North 250 288 26,500 677 Climbing Los Angeles Center
Sun 03:51:43 PM 34.5950 -115.4094 20° North 257 296 26,900 242 Climbing Los Angeles Center
Sun 03:52:45 PM 34.6764 -115.3747 19° North 285 328 27,000 48 Climbing Los Angeles Center
Sun 03:53:47 PM 34.7564 -115.3403 19° North 300 345 27,000  Level Los Angeles Center
Sun 03:54:49 PM 34.8525 -115.2961 21° North 307 353 27,000  Level Los Angeles Center
Sun 03:55:51 PM 34.9258 -115.2647 19° North 304 350 27,000  Level Los Angeles Center
Sun 03:56:53 PM 35.0092 -115.2275 20° North 298 343 27,000  Level Los Angeles Center
Sun 03:57:56 PM 35.0875 -115.1931 20° North 300 345 27,000  Level Los Angeles Center
Sun 03:58:58 PM 35.1667 -115.1564 21° North 303 349 27,000  Level Los Angeles Center
Sun 04:00:00 PM 35.2442 -115.1094 26° Northeast 308 354 27,000  Level Los Angeles Center
Sun 04:01:02 PM 35.3364 -115.0575 25° Northeast 306 352 27,000  Level Los Angeles Center
Sun 04:02:04 PM 35.4139 -115.0133 25° Northeast 306 352 27,000  Level Los Angeles Center
Sun 04:03:06 PM 35.4903 -114.9689 25° Northeast 305 351 27,000  Level Los Angeles Center
Sun 04:04:08 PM 35.5681 -114.9247 25° Northeast 307 353 27,000  Level Los Angeles Center
Sun 04:05:10 PM 35.6444 -114.8819 24° Northeast 303 349 27,000  Level Los Angeles Center
Sun 04:06:12 PM 35.7225 -114.8378 25° Northeast 308 354 27,000  Level Los Angeles Center
Sun 04:07:15 PM 35.8153 -114.7847 25° Northeast 307 353 27,000  Level Los Angeles Center
Sun 04:08:17 PM 35.8908 -114.7408 25° Northeast 303 349 27,000  Level Los Angeles Center
Sun 04:09:19 PM 35.9664 -114.6964 25° Northeast 301 346 27,000  Level Los Angeles Center
Sun 04:10:21 PM 36.0425 -114.6511 26° Northeast 303 349 27,000  Level Los Angeles Center
Sun 04:11:23 PM 36.1197 -114.6072 25° Northeast 304 350 27,000  Level Los Angeles Center
Sun 04:12:25 PM 36.2111 -114.5544 25° Northeast 304 350 27,000  Level Los Angeles Center
Sun 04:13:27 PM 36.2864 -114.5097 26° Northeast 301 346 27,000  Level Los Angeles Center
Sun 04:14:29 PM 36.3619 -114.4656 25° Northeast 302 348 27,000  Level Los Angeles Center
Sun 04:15:32 PM 36.4369 -114.4211 25° Northeast 300 345 27,000  Level Los Angeles Center
Sun 04:16:34 PM 36.5122 -114.3778 25° Northeast 300 345 27,000  Level Los Angeles Center
Sun 04:17:36 PM 36.5872 -114.3331 26° Northeast 299 344 27,000  Level Los Angeles Center
Sun 04:18:38 PM 36.6783 -114.2800 25° Northeast 301 346 27,000  Level Los Angeles Center
Sun 04:19:40 PM 36.7525 -114.2356 26° Northeast 298 343 27,000  Level Los Angeles Center
Sun 04:20:42 PM 36.8281 -114.1919 25° Northeast 299 344 27,000  Level Los Angeles Center
Sun 04:21:44 PM 36.9019 -114.1483 25° Northeast 295 339 27,000  Level Los Angeles Center
Sun 04:22:46 PM 36.9775 -114.1050 25° Northeast 297 342 27,000  Level Los Angeles Center
Sun 04:23:48 PM 37.0675 -114.0514 25° Northeast 298 343 27,000  Level Los Angeles Center
Sun 04:24:50 PM 37.1414 -114.0069 26° Northeast 295 339 27,000  Level Los Angeles Center
Sun 04:25:53 PM 37.2156 -113.9633 25° Northeast 294 338 27,000  Level Los Angeles Center
Sun 04:26:55 PM 37.2892 -113.9194 25° Northeast 292 336 27,000  Level Los Angeles Center
Sun 04:27:57 PM 37.3597 -113.8778 25° Northeast 290 334 27,000  Level Los Angeles Center
Sun 04:28:59 PM 37.4461 -113.8253 26° Northeast 287 330 27,000  Level Los Angeles Center
Sun 04:30:01 PM 37.5181 -113.7808 26° Northeast 287 330 27,000  Level Los Angeles Center
Sun 04:31:03 PM 37.5914 -113.7386 25° Northeast 288 331 27,000  Level Los Angeles Center
Sun 04:32:05 PM 37.6656 -113.6931 26° Northeast 292 336 27,000  Level Los Angeles Center
Sun 04:32:36 PM 37.7083 -113.6664 26° Northeast 291 335 27,000  Level Salt Lake Center
Sun 04:33:37 PM 37.7817 -113.6225 25° Northeast 291 335 27,000  Level Salt Lake Center
Sun 04:34:39 PM 37.8544 -113.5786 25° Northeast 290 334 27,000  Level Salt Lake Center
Sun 04:35:41 PM 37.9278 -113.5328 26° Northeast 291 335 27,000  Level Salt Lake Center
Sun 04:36:42 PM 38.0011 -113.4881 26° Northeast 291 335 27,000  Level Salt Lake Center
Sun 04:37:44 PM 38.0742 -113.4431 26° Northeast 291 335 27,000  Level Salt Lake Center
Sun 04:38:46 PM 38.1469 -113.3981 26° Northeast 291 335 27,000  Level Salt Lake Center
Sun 04:39:47 PM 38.2211 -113.3536 25° Northeast 292 336 27,000  Level Salt Lake Center
Sun 04:40:49 PM 38.3086 -113.2994 26° Northeast 291 335 27,000  Level Salt Lake Center
Sun 04:41:51 PM 38.3811 -113.2542 26° Northeast 291 335 27,000  Level Salt Lake Center
Sun 04:42:52 PM 38.4539 -113.2089 26° Northeast 291 335 27,000  Level Salt Lake Center
Sun 04:43:54 PM 38.5250 -113.1636 26° Northeast 286 329 27,000  Level Salt Lake Center
Sun 04:44:56 PM 38.5956 -113.1181 27° Northeast 284 327 27,000  Level Salt Lake Center
Sun 04:45:57 PM 38.6675 -113.0742 25° Northeast 286 329 27,000  Level Salt Lake Center
Sun 04:46:59 PM 38.7394 -113.0297 26° Northeast 286 329 27,000  Level Salt Lake Center
Sun 04:48:01 PM 38.8100 -112.9839 27° Northeast 284 327 27,000  Level Salt Lake Center
Sun 04:49:02 PM 38.8972 -112.9303 26° Northeast 287 330 27,000  Level Salt Lake Center
Sun 04:50:04 PM 38.9694 -112.8833 27° Northeast 289 333 27,000  Level Salt Lake Center
Sun 04:51:06 PM 39.0425 -112.8375 26° Northeast 291 335 27,000  Level Salt Lake Center
Sun 04:52:07 PM 39.1147 -112.7928 26° Northeast 291 335 27,000  Level Salt Lake Center
Sun 04:54:11 PM 39.2589 -112.7008 26° Northeast 289 333 27,000  Level Salt Lake Center
Sun 04:55:12 PM 39.3319 -112.6542 26° Northeast 290 334 27,000  Level Salt Lake Center
Sun 04:56:14 PM 39.4061 -112.6083 26° Northeast 293 337 27,000  Level Salt Lake Center
Sun 04:57:16 PM 39.4917 -112.5533 26° Northeast 286 329 27,000  Level Salt Lake Center
Sun 04:58:17 PM 39.5636 -112.5072 26° Northeast 288 331 27,000  Level Salt Lake Center
Sun 04:59:19 PM 39.6353 -112.4600 27° Northeast 289 333 27,000  Level Salt Lake Center
Sun 05:00:21 PM 39.7061 -112.4150 26° Northeast 286 329 27,000  Level Salt Lake Center
Sun 05:01:22 PM 39.7775 -112.3692 26° Northeast 286 329 27,000  Level Salt Lake Center
Sun 05:02:24 PM 39.8475 -112.3225 27° Northeast 283 326 27,000  Level Salt Lake Center
Sun 05:03:26 PM 39.9178 -112.2769 26° Northeast 283 326 27,000  Level Salt Lake Center
Sun 05:04:28 PM 40.0028 -112.2219 26° Northeast 283 326 27,000  Level Salt Lake Center
Sun 05:05:29 PM 40.0736 -112.1756 27° Northeast 284 327 27,000  Level Salt Lake Center
Sun 05:06:31 PM 40.1436 -112.1283 27° Northeast 285 328 27,000  Level Salt Lake Center
Sun 05:07:33 PM 40.2136 -112.0836 26° Northeast 282 325 27,000  Level Salt Lake Center
Sun 05:08:34 PM 40.2844 -112.0372 27° Northeast 284 327 27,000  Level Salt Lake Center
Sun 05:09:36 PM 40.3556 -111.9911 26° Northeast 287 330 27,000  Level Salt Lake Center
Sun 05:10:38 PM 40.4419 -111.9333 27° Northeast 293 337 27,000  Level Salt Lake Center
Sun 05:11:40 PM 40.5133 -111.8853 27° Northeast 290 334 27,000  Level Salt Lake Center
Sun 05:12:41 PM 40.5844 -111.8372 27° Northeast 288 331 27,000  Level Salt Lake Center
Sun 05:13:43 PM 40.6553 -111.7903 27° Northeast 285 328 27,000  Level Salt Lake Center
Sun 05:14:45 PM 40.7253 -111.7442 27° Northeast 283 326 27,000  Level Salt Lake Center
Sun 05:15:47 PM 40.7958 -111.6969 27° Northeast 286 329 27,000  Level Salt Lake Center
Sun 05:16:48 PM 40.8792 -111.6419 27° Northeast 282 325 27,000  Level Salt Lake Center
Sun 05:17:50 PM 40.9483 -111.5944 27° Northeast 284 327 27,000  Level Salt Lake Center
Sun 05:18:52 PM 41.0183 -111.5472 27° Northeast 286 329 27,000  Level Salt Lake Center
Sun 05:19:54 PM 41.0878 -111.5003 27° Northeast 283 326 27,000  Level Salt Lake Center
Sun 05:20:55 PM 41.1572 -111.4522 28° Northeast 284 327 27,000  Level Salt Lake Center
Sun 05:21:57 PM 41.2264 -111.4061 27° Northeast 281 323 27,000  Level Salt Lake Center
Sun 05:22:59 PM 41.3089 -111.3497 27° Northeast 279 321 27,000  Level Salt Lake Center
Sun 05:24:01 PM 41.3758 -111.3025 28° Northeast 274 315 27,000  Level Salt Lake Center
Sun 05:25:03 PM 41.4444 -111.2564 27° Northeast 275 316 27,000  Level Salt Lake Center
Sun 05:26:04 PM 41.5150 -111.2075 27° Northeast 284 327 27,000  Level Salt Lake Center
Sun 05:27:06 PM 41.5831 -111.1611 27° Northeast 278 320 27,000  Level Salt Lake Center
Sun 05:28:08 PM 41.6511 -111.1136 28° Northeast 276 318 27,000  Level Salt Lake Center
Sun 05:29:10 PM 41.7333 -111.0569 27° Northeast 277 319 27,000  Level Salt Lake Center
Sun 05:30:12 PM 41.8022 -111.0103 27° Northeast 277 319 27,000  Level Salt Lake Center
Sun 05:31:14 PM 41.8700 -110.9622 28° Northeast 276 318 27,000  Level Salt Lake Center
Sun 05:32:15 PM 41.9444 -110.9100 28° Northeast 277 319 27,000  Level Salt Lake Center
Sun 05:33:17 PM 42.0092 -110.8653 27° Northeast 276 318 27,000  Level Salt Lake Center
Sun 05:34:19 PM 42.0864 -110.8108 28° Northeast 278 320 27,000  Level Salt Lake Center
Sun 05:35:21 PM 42.1517 -110.7653 27° Northeast 276 318 27,000  Level Salt Lake Center
Sun 05:36:23 PM 42.2183 -110.7200 27° Northeast 279 321 27,000  Level Salt Lake Center
Sun 05:37:25 PM 42.2950 -110.6636 29° Northeast 280 322 27,000  Level Salt Lake Center
Sun 05:38:27 PM 42.3611 -110.6183 27° Northeast 278 320 27,000  Level Salt Lake Center
Sun 05:39:29 PM 42.4367 -110.5650 28° Northeast 275 316 27,000  Level Salt Lake Center
Sun 05:40:31 PM 42.5017 -110.5192 27° Northeast 276 318 27,000  Level Salt Lake Center
Sun 05:41:33 PM 42.5767 -110.4661 28° Northeast 272 313 27,000  Level Salt Lake Center
Sun 05:42:35 PM 42.6397 -110.4192 29° Northeast 268 308 27,000  Level Salt Lake Center
Sun 05:43:37 PM 42.7142 -110.3669 27° Northeast 270 311 27,000  Level Salt Lake Center
Sun 05:44:39 PM 42.7800 -110.3200 28° Northeast 270 311 27,000  Level Salt Lake Center
Sun 05:45:40 PM 42.8444 -110.2736 28° Northeast 273 314 27,000  Level Salt Lake Center
Sun 05:46:42 PM 42.9186 -110.2200 28° Northeast 272 313 27,000  Level Salt Lake Center
Sun 05:47:44 PM 42.9819 -110.1739 28° Northeast 271 312 27,000  Level Salt Lake Center
Sun 05:48:46 PM 43.0567 -110.1194 28° Northeast 272 313 27,000  Level Salt Lake Center
Sun 05:49:48 PM 43.1208 -110.0733 28° Northeast 273 314 27,000  Level Salt Lake Center
Sun 05:50:50 PM 43.1942 -110.0200 28° Northeast 270 311 27,000  Level Salt Lake Center
Sun 05:51:51 PM 43.2556 -109.9736 29° Northeast 270 311 27,000  Level Salt Lake Center
Sun 05:52:53 PM 43.3328 -109.9164 28° Northeast 280 322 27,000  Level Salt Lake Center
Sun 05:53:55 PM 43.3964 -109.8700 28° Northeast 272 313 27,000  Level Salt Lake Center
Sun 05:54:57 PM 43.4631 -109.8236 27° Northeast 264 304 27,000  Level Salt Lake Center
Sun 05:55:59 PM 43.5350 -109.7681 29° Northeast 272 313 27,000  Level Salt Lake Center
Sun 05:57:01 PM 43.5986 -109.7214 28° Northeast 272 313 27,000  Level Salt Lake Center
Sun 05:58:02 PM 43.6728 -109.6650 29° Northeast 272 313 27,000  Level Salt Lake Center
Sun 05:59:04 PM 43.7358 -109.6181 28° Northeast 271 312 27,000  Level Salt Lake Center
Sun 06:00:06 PM 43.8103 -109.5603 29° Northeast 273 314 27,000  Level Salt Lake Center
Sun 06:01:08 PM 43.8747 -109.5122 28° Northeast 274 315 27,000  Level Salt Lake Center
Sun 06:02:10 PM 43.9425 -109.4628 28° Northeast 274 315 27,000 -732 Level Salt Lake Center
Sun 06:03:11 PM 44.0094 -109.4125 28° Northeast 273 314 25,500 -1,951 Descending Salt Lake Center
Sun 06:04:13 PM 44.0769 -109.3617 28° Northeast 276 318 23,000 -2,323 Descending Salt Lake Center
Sun 06:05:15 PM 44.1431 -109.3122 28° Northeast 271 312 20,700 -2,468 Descending Salt Lake Center
Sun 06:06:17 PM 44.2206 -109.2531 29° Northeast 268 308 17,900 -2,439 Descending Salt Lake Center
Sun 06:07:18 PM 44.2775 -109.2103 28° Northeast 245 282 15,700 -2,164 Descending Salt Lake Center

Login

Don't have an account? Register now (free) for customized features, flight alerts, and more!